Time;durP1;ratioP1;P1;durP2;ratioP2;P2;SDS_P1;SDS_P2;PMS_P1;PMS_P2;Temp;Humidity;BMP_temperature;BMP_pressure;BME280_temperature;BME280_humidity;BME280_pressure;Samples;Min_cycle;Max_cycle;Signal;HPM_P1;HPM_P2
2023/08/03 00:02:06;;;;;;;11.75;7.00;;;;;;;24.57;69.46;99340.14;1734894;83;21303;-84
2023/08/03 00:05:22;;;;;;;8.95;7.20;;;;;;;24.73;68.83;99342.50;1716990;83;21295;-83
2023/08/03 00:08:21;;;;;;;13.00;7.65;;;;;;;24.66;69.09;99339.79;1734654;83;21704;-85
2023/08/03 00:11:26;;;;;;;14.55;7.80;;;;;;;24.74;68.66;99338.57;1734743;83;21275;-85
2023/08/03 00:14:33;;;;;;;8.55;7.65;;;;;;;24.94;68.31;99348.76;1734407;83;21295;-84
2023/08/03 00:17:40;;;;;;;9.48;7.37;;;;;;;25.03;68.13;99345.30;1734978;83;21865;-83
2023/08/03 00:20:47;;;;;;;10.93;7.30;;;;;;;24.81;68.67;99344.41;1733581;83;21275;-85
2023/08/03 00:23:53;;;;;;;13.18;7.58;;;;;;;24.71;69.04;99346.73;1735654;80;21291;-83
2023/08/03 00:26:59;;;;;;;11.33;7.53;;;;;;;24.70;69.33;99345.91;1745064;82;21296;-84
2023/08/03 00:30:06;;;;;;;9.13;7.72;;;;;;;24.90;68.90;99354.67;1743696;82;22109;-84
2023/08/03 00:33:12;;;;;;;13.08;8.88;;;;;;;25.10;68.10;99354.23;1762171;80;21266;-84
2023/08/03 00:36:18;;;;;;;9.65;7.90;;;;;;;25.10;68.27;99359.25;1721328;82;21286;-85
2023/08/03 00:39:25;;;;;;;14.33;8.13;;;;;;;25.00;68.67;99349.53;1720796;82;21294;-85
2023/08/03 00:42:31;;;;;;;18.42;8.73;;;;;;;24.96;68.91;99344.26;1757731;80;21664;-85
2023/08/03 00:45:36;;;;;;;10.72;7.90;;;;;;;24.89;69.13;99339.55;1743860;82;21867;-84
2023/08/03 00:48:41;;;;;;;11.43;7.83;;;;;;;25.21;67.96;99349.61;1745003;82;21802;-85
2023/08/03 00:51:46;;;;;;;12.55;8.53;;;;;;;24.96;68.92;99346.48;1744678;82;21326;-85
2023/08/03 00:54:52;;;;;;;10.75;8.35;;;;;;;25.00;68.56;99345.34;1744420;82;21317;-85
2023/08/03 00:57:59;;;;;;;11.45;8.30;;;;;;;24.98;68.71;99351.78;1745053;82;21188;-84
2023/08/03 01:01:06;;;;;;;10.90;8.15;;;;;;;24.80;69.49;99356.73;1743807;82;21192;-86
2023/08/03 01:04:12;;;;;;;17.62;9.48;;;;;;;24.62;70.15;99354.08;1739470;81;21337;-85
2023/08/03 01:07:21;;;;;;;11.88;8.75;;;;;;;24.47;70.54;99358.66;1744192;82;21303;-85
2023/08/03 01:10:27;;;;;;;13.28;9.08;;;;;;;24.56;70.36;99361.67;1743980;82;21369;-85
2023/08/03 01:13:34;;;;;;;13.13;8.30;;;;;;;24.46;70.78;99356.14;1743892;82;21319;-85
2023/08/03 01:16:41;;;;;;;11.57;9.13;;;;;;;24.53;70.68;99362.25;1745150;82;21306;-85
2023/08/03 01:19:48;;;;;;;14.43;9.35;;;;;;;24.36;71.63;99365.97;1758171;80;21314;-84
2023/08/03 01:22:53;;;;;;;13.95;10.03;;;;;;;24.48;71.19;99356.13;1744285;82;21307;-84
2023/08/03 01:25:59;;;;;;;12.68;9.50;;;;;;;24.37;71.71;99362.07;1761561;80;21331;-84
2023/08/03 01:29:06;;;;;;;14.45;9.40;;;;;;;24.27;72.07;99356.52;1744820;82;21350;-84
2023/08/03 01:32:12;;;;;;;9.83;8.45;;;;;;;24.32;72.03;99355.09;1743755;82;21926;-85
2023/08/03 01:35:17;;;;;;;17.07;8.90;;;;;;;24.42;71.69;99350.31;1743661;82;21325;-85
2023/08/03 01:38:23;;;;;;;15.23;9.98;;;;;;;24.35;72.07;99355.92;1744272;82;21330;-83
2023/08/03 01:41:31;;;;;;;16.95;10.23;;;;;;;24.23;72.54;99358.52;1743951;82;21639;-85
2023/08/03 01:44:34;;;;;;;13.15;9.50;;;;;;;24.26;72.75;99366.03;1744749;82;21187;-85
2023/08/03 01:47:41;;;;;;;14.83;9.43;;;;;;;24.06;73.66;99374.81;1745149;82;21290;-84
2023/08/03 01:50:47;;;;;;;11.50;9.15;;;;;;;24.19;73.57;99379.78;1743701;82;21926;-84
2023/08/03 01:53:52;;;;;;;12.65;9.33;;;;;;;24.35;73.04;99376.31;1744015;82;21326;-85
2023/08/03 01:57:01;;;;;;;14.47;9.55;;;;;;;24.39;72.99;99382.20;1721402;82;21279;-85
2023/08/03 02:00:07;;;;;;;15.05;10.53;;;;;;;24.60;72.21;99385.09;1744219;82;21325;-84
2023/08/03 02:03:12;;;;;;;13.75;10.35;;;;;;;24.45;72.61;99390.24;1745156;82;21188;-83
2023/08/03 02:06:19;;;;;;;14.38;9.75;;;;;;;24.47;72.50;99385.78;1745098;82;21741;-85
2023/08/03 02:09:25;;;;;;;16.65;9.75;;;;;;;24.50;72.60;99392.17;1744773;82;21310;-85
2023/08/03 02:12:32;;;;;;;17.23;10.23;;;;;;;24.38;73.04;99387.52;1745111;82;21279;-86
2023/08/03 02:15:38;;;;;;;12.88;9.85;;;;;;;24.40;73.05;99391.67;1743946;82;21314;-85
2023/08/03 02:18:45;;;;;;;18.32;12.70;;;;;;;24.17;74.09;99398.77;1745055;82;21275;-86
2023/08/03 02:21:51;;;;;;;15.08;11.60;;;;;;;24.48;73.22;99408.41;1743704;82;21319;-85
2023/08/03 02:24:57;;;;;;;20.43;12.85;;;;;;;24.54;73.11;99406.41;1744468;82;21323;-85
2023/08/03 02:28:02;;;;;;;16.75;11.88;;;;;;;24.59;72.95;99404.41;1743846;80;21347;-86
2023/08/03 02:31:09;;;;;;;15.03;10.90;;;;;;;24.33;73.97;99397.30;1744625;82;21330;-84
2023/08/03 02:34:16;;;;;;;13.83;10.55;;;;;;;24.27;74.35;99401.23;1744602;82;21858;-84
2023/08/03 02:37:22;;;;;;;14.90;11.60;;;;;;;24.48;73.54;99404.22;1745026;82;21291;-86
2023/08/03 02:40:29;;;;;;;14.90;11.20;;;;;;;24.37;74.04;99406.78;1743957;82;21362;-85
2023/08/03 02:43:39;;;;;;;11.55;10.00;;;;;;;24.49;73.72;99405.87;1745105;82;21275;-86
2023/08/03 02:46:45;;;;;;;19.73;11.63;;;;;;;24.44;73.94;99411.50;1719931;82;21290;-85
2023/08/03 02:49:51;;;;;;;14.35;10.95;;;;;;;24.43;74.24;99414.86;1744391;82;21330;-86
2023/08/03 02:52:58;;;;;;;15.72;10.82;;;;;;;24.48;74.22;99414.00;1743674;82;21274;-86
2023/08/03 02:56:05;;;;;;;17.17;10.58;;;;;;;24.61;73.69;99410.55;1745004;82;21275;-87
2023/08/03 02:59:18;;;;;;;15.08;11.68;;;;;;;24.56;73.65;99409.20;1744832;82;21307;-85
2023/08/03 03:02:21;;;;;;;16.67;11.25;;;;;;;24.64;73.14;99414.15;1743614;82;21291;-84
2023/08/03 03:05:21;;;;;;;18.87;10.88;;;;;;;24.98;71.60;99414.17;1766819;81;21322;-85
2023/08/03 03:08:27;;;;;;;12.90;9.75;;;;;;;25.29;70.30;99418.67;1746021;82;21318;-86
2023/08/03 03:11:33;;;;;;;13.25;10.53;;;;;;;24.80;71.52;99422.45;1745955;82;21306;-84
2023/08/03 03:14:40;;;;;;;12.55;9.90;;;;;;;24.77;71.68;99429.44;1791049;79;21283;-86
2023/08/03 03:17:47;;;;;;;13.60;10.35;;;;;;;24.77;71.58;99435.03;1738429;82;21331;-86
2023/08/03 03:20:54;;;;;;;17.17;10.68;;;;;;;24.83;71.20;99431.63;1746020;82;21278;-85
2023/08/03 03:24:00;;;;;;;13.30;10.60;;;;;;;24.45;72.96;99434.12;1742341;82;21558;-84
2023/08/03 03:27:05;;;;;;;13.50;10.55;;;;;;;24.27;73.78;99440.34;1747286;80;21811;-84
2023/08/03 03:30:16;;;;;;;18.92;11.03;;;;;;;24.28;73.92;99432.23;1744087;82;21887;-84
2023/08/03 03:33:22;;;;;;;14.00;11.63;;;;;;;24.24;74.01;99433.39;1743879;82;21299;-84
2023/08/03 03:36:29;;;;;;;19.25;10.50;;;;;;;24.19;74.57;99441.23;1744966;82;21820;-84
2023/08/03 03:39:35;;;;;;;17.77;11.15;;;;;;;24.34;74.31;99445.08;1744685;82;21835;-84
2023/08/03 03:42:42;;;;;;;19.75;11.60;;;;;;;24.57;73.26;99450.00;1744139;82;21733;-86
2023/08/03 03:45:48;;;;;;;14.55;11.15;;;;;;;24.57;73.18;99444.41;1743756;82;21295;-85
2023/08/03 03:48:55;;;;;;;17.62;11.53;;;;;;;24.56;73.52;99446.94;1758519;81;21298;-86
2023/08/03 03:52:02;;;;;;;14.03;11.45;;;;;;;24.51;73.79;99441.34;1744570;82;21314;-85
2023/08/03 03:55:08;;;;;;;14.25;11.12;;;;;;;24.70;73.52;99445.16;1744662;82;21279;-84
2023/08/03 03:58:14;;;;;;;13.83;10.53;;;;;;;24.90;74.00;99446.96;1745051;82;21290;-86
2023/08/03 04:01:21;;;;;;;21.40;10.98;;;;;;;25.36;72.69;99452.73;1745124;82;21303;-84
2023/08/03 04:04:28;;;;;;;13.13;10.30;;;;;;;25.59;71.73;99460.34;1743880;82;21306;-86
2023/08/03 04:07:34;;;;;;;12.90;10.40;;;;;;;25.78;71.36;99460.44;1744956;82;21291;-85
2023/08/03 04:10:41;;;;;;;13.58;10.90;;;;;;;26.05;70.67;99459.85;1744489;82;21282;-84
2023/08/03 04:13:48;;;;;;;16.30;10.98;;;;;;;26.40;69.47;99464.75;1743849;82;21322;-86
2023/08/03 04:16:55;;;;;;;20.57;11.20;;;;;;;26.58;68.62;99459.72;1744984;82;21843;-85
2023/08/03 04:20:03;;;;;;;13.65;11.03;;;;;;;27.14;66.39;99458.05;1743946;82;21295;-84
2023/08/03 04:23:10;;;;;;;12.80;10.43;;;;;;;27.34;65.25;99457.71;1744136;82;21278;-85
2023/08/03 04:26:18;;;;;;;13.35;9.73;;;;;;;27.71;63.83;99459.59;1744006;82;21863;-85
2023/08/03 04:29:24;;;;;;;12.37;9.93;;;;;;;27.72;63.35;99462.65;1738917;81;21282;-84
2023/08/03 04:32:30;;;;;;;13.70;10.65;;;;;;;27.83;62.70;99466.66;1744750;82;21321;-86
2023/08/03 04:35:36;;;;;;;11.85;10.05;;;;;;;28.31;61.21;99471.27;1743808;82;21323;-85
2023/08/03 04:38:43;;;;;;;16.87;10.13;;;;;;;28.59;60.23;99474.91;1745216;82;21838;-85
2023/08/03 04:41:50;;;;;;;13.88;9.68;;;;;;;28.69;59.58;99473.84;1761675;80;21314;-85
2023/08/03 04:44:57;;;;;;;12.78;9.95;;;;;;;28.71;58.55;99473.80;1759371;80;21228;-86
2023/08/03 04:47:58;;;;;;;17.87;10.88;;;;;;;28.84;57.30;99472.06;1745339;82;21284;-84
2023/08/03 04:50:51;;;;;;;18.40;10.35;;;;;;;28.97;57.02;99469.81;1743761;82;21287;-83
2023/08/03 04:53:56;;;;;;;21.65;11.65;;;;;;;29.38;56.00;99475.01;1761771;80;21271;-83
2023/08/03 04:57:03;;;;;;;22.25;13.43;;;;;;;29.39;56.11;99481.72;1744053;82;21330;-83
2023/08/03 05:00:08;;;;;;;20.00;13.88;;;;;;;29.40;56.07;99483.95;1744514;82;21299;-84
2023/08/03 05:03:13;;;;;;;21.20;13.58;;;;;;;29.50;55.83;99480.86;1744994;82;21331;-84
2023/08/03 05:06:18;;;;;;;22.73;13.28;;;;;;;29.51;55.32;99485.38;1745132;82;21820;-84
2023/08/03 05:09:26;;;;;;;25.27;16.12;;;;;;;29.74;54.06;99480.56;1721194;82;21282;-84
2023/08/03 05:12:31;;;;;;;28.70;15.43;;;;;;;29.86;53.50;99488.40;1714304;82;21268;-84
2023/08/03 05:15:37;;;;;;;16.62;11.70;;;;;;;30.03;52.89;99491.30;1709138;82;21913;-84
2023/08/03 05:18:43;;;;;;;16.82;9.90;;;;;;;30.43;51.63;99493.52;1705630;82;21312;-84
2023/08/03 05:21:48;;;;;;;14.93;7.45;;;;;;;30.19;52.11;99499.59;1675689;85;21263;-83
2023/08/03 05:24:55;;;;;;;12.63;7.33;;;;;;;30.29;51.11;99503.52;1649142;86;21355;-83
2023/08/03 05:28:01;;;;;;;18.77;7.28;;;;;;;30.40;50.55;99507.48;1674307;85;21561;-84
2023/08/03 05:31:08;;;;;;;12.45;6.87;;;;;;;30.75;50.25;99512.05;1701149;82;21816;-83
2023/08/03 05:34:15;;;;;;;10.03;6.67;;;;;;;30.66;50.34;99512.58;1753757;82;21850;-83
2023/08/03 05:37:21;;;;;;;6.30;5.65;;;;;;;30.57;50.48;99516.55;1754359;82;21299;-84
2023/08/03 05:40:28;;;;;;;12.88;6.12;;;;;;;30.49;49.29;99513.39;1753305;82;21311;-84
2023/08/03 05:43:34;;;;;;;7.75;5.97;;;;;;;30.65;48.48;99519.98;1753679;82;21323;-84
2023/08/03 05:46:40;;;;;;;5.90;5.03;;;;;;;30.46;49.05;99523.09;1723142;83;21848;-84
2023/08/03 05:49:49;;;;;;;7.25;5.45;;;;;;;30.70;48.31;99524.05;1722638;83;21342;-84
2023/08/03 05:52:56;;;;;;;6.60;5.30;;;;;;;30.77;48.31;99524.41;1690061;83;21350;-84
2023/08/03 05:56:01;;;;;;;6.58;5.87;;;;;;;30.73;48.07;99525.67;1740897;79;21276;-83
2023/08/03 05:59:09;;;;;;;7.10;4.62;;;;;;;30.54;48.58;99534.98;1737576;82;21327;-84
2023/08/03 06:02:25;;;;;;;12.13;4.85;;;;;;;30.82;47.53;99526.24;1754461;82;21291;-84
2023/08/03 06:05:50;;;;;;;5.90;5.03;;;;;;;30.80;47.21;99534.47;1753683;82;21880;-84
2023/08/03 06:09:01;;;;;;;5.47;4.25;;;;;;;30.88;47.25;99534.83;1736363;82;21848;-84
2023/08/03 06:12:07;;;;;;;7.85;4.85;;;;;;;30.95;46.39;99537.39;1737494;82;21876;-84
2023/08/03 06:15:14;;;;;;;6.30;5.05;;;;;;;31.07;45.80;99537.33;1730905;82;21820;-84
2023/08/03 06:18:26;;;;;;;8.50;4.75;;;;;;;31.29;45.31;99538.03;1746675;81;21275;-84
2023/08/03 06:21:33;;;;;;;6.12;4.15;;;;;;;31.36;45.63;99539.52;1767006;81;21303;-84
2023/08/03 06:24:39;;;;;;;6.95;3.70;;;;;;;31.48;43.98;99528.38;1742763;81;21259;-84
2023/08/03 06:27:48;;;;;;;4.50;3.25;;;;;;;31.40;43.94;99537.69;1728341;81;21852;-84
2023/08/03 06:30:55;;;;;;;5.92;3.83;;;;;;;31.81;42.97;99535.13;1771787;81;21889;-84
2023/08/03 06:34:02;;;;;;;6.40;3.70;;;;;;;32.03;43.56;99533.25;1743519;81;21348;-84
2023/08/03 06:37:07;;;;;;;4.85;3.05;;;;;;;32.21;42.17;99536.84;1714746;83;21848;-83
2023/08/03 06:40:14;;;;;;;4.78;3.40;;;;;;;32.17;42.39;99536.69;1714935;83;21317;-85
2023/08/03 06:43:20;;;;;;;3.30;3.00;;;;;;;31.75;43.13;99540.69;1707772;84;21339;-85
2023/08/03 06:46:26;;;;;;;4.97;3.62;;;;;;;31.98;43.28;99543.33;1708729;84;21303;-85
2023/08/03 06:49:32;;;;;;;6.58;3.12;;;;;;;31.98;43.28;99543.33;1708404;84;21319;-85
2023/08/03 06:52:38;;;;;;;4.33;3.35;;;;;;;32.28;42.44;99535.16;1708702;84;21320;-84
2023/08/03 06:55:48;;;;;;;7.87;3.98;;;;;;;32.39;42.46;99536.22;1717565;82;21755;-84
2023/08/03 06:58:51;;;;;;;7.53;4.30;;;;;;;32.49;42.58;99532.41;1726529;82;21953;-84
2023/08/03 07:01:57;;;;;;;6.67;3.87;;;;;;;32.48;44.00;99528.52;1746080;82;21255;-84
2023/08/03 07:05:02;;;;;;;6.05;4.28;;;;;;;32.41;43.29;99539.52;1749445;82;21311;-85
2023/08/03 07:08:09;;;;;;;6.47;4.67;;;;;;;32.26;42.77;99540.31;1744570;82;21814;-85
2023/08/03 07:11:15;;;;;;;7.37;4.58;;;;;;;32.21;42.67;99550.40;1726926;82;21299;-83
2023/08/03 07:14:20;;;;;;;5.37;3.90;;;;;;;32.54;42.69;99549.20;1747100;82;21471;-85
2023/08/03 07:17:26;;;;;;;5.08;3.50;;;;;;;32.66;43.07;99546.23;1714323;83;21339;-84
2023/08/03 07:20:33;;;;;;;5.67;3.58;;;;;;;33.11;42.55;99548.44;1705581;83;21320;-84
2023/08/03 07:23:38;;;;;;;3.70;2.85;;;;;;;33.87;41.35;99552.92;1705500;83;21841;-84
2023/08/03 11:47:30;;;;;;;6.40;2.60;;;;;;;30.86;40.97;99576.66;1781590;79;28774;-84
2023/08/03 11:50:37;;;;;;;3.42;2.55;;;;;;;30.93;41.58;99578.42;1753718;81;21850;-85
2023/08/03 11:53:44;;;;;;;3.33;2.40;;;;;;;30.91;41.95;99575.08;1752910;82;21760;-85
2023/08/03 11:56:52;;;;;;;6.53;2.42;;;;;;;31.37;42.24;99579.31;1752942;80;21879;-84
2023/08/03 11:59:59;;;;;;;3.02;2.60;;;;;;;31.41;42.53;99577.48;1730774;82;21327;-85
2023/08/03 12:03:04;;;;;;;3.95;2.50;;;;;;;31.55;42.32;99578.14;1783592;79;21283;-85
2023/08/03 12:06:13;;;;;;;5.85;2.35;;;;;;;31.52;42.34;99573.15;1783568;79;21338;-85
2023/08/03 12:09:34;;;;;;;4.75;2.42;;;;;;;31.52;41.13;99574.01;1785102;79;21318;-85
2023/08/03 12:12:40;;;;;;;5.17;2.40;;;;;;;31.80;41.98;99569.37;1783105;79;21318;-83
2023/08/03 12:15:47;;;;;;;3.27;2.27;;;;;;;31.69;41.61;99577.38;1783592;79;21358;-85
2023/08/03 12:18:53;;;;;;;5.15;2.50;;;;;;;31.72;39.79;99573.89;1779014;80;21871;-85
2023/08/03 12:22:01;;;;;;;6.40;2.75;;;;;;;31.90;40.00;99576.70;1783475;78;21322;-85
2023/08/03 12:25:08;;;;;;;2.85;2.08;;;;;;;31.94;40.10;99573.45;1784674;80;22005;-85
2023/08/03 12:28:14;;;;;;;3.00;2.37;;;;;;;31.85;37.77;99572.05;1776660;80;21322;-85
2023/08/03 12:31:22;;;;;;;3.67;2.65;;;;;;;31.80;39.49;99581.50;1764667;79;21311;-85
2023/08/03 12:34:28;;;;;;;4.40;2.45;;;;;;;31.74;40.53;99574.96;1784965;80;21322;-85
2023/08/03 12:37:35;;;;;;;2.67;2.47;;;;;;;31.84;37.65;99583.12;1783024;79;21305;-86
2023/08/03 12:40:41;;;;;;;4.15;2.70;;;;;;;31.98;38.03;99577.27;1783475;79;21420;-85
2023/08/03 12:43:47;;;;;;;3.10;2.35;;;;;;;31.93;38.04;99571.80;1784787;79;21271;-84
2023/08/03 12:46:54;;;;;;;2.80;2.17;;;;;;;31.84;37.58;99573.81;1724031;80;21227;-85
2023/08/03 12:50:01;;;;;;;5.62;2.25;;;;;;;31.91;37.39;99569.31;1785519;79;21311;-85
2023/08/03 12:53:08;;;;;;;9.80;3.08;;;;;;;31.78;37.31;99578.78;1785482;80;21287;-85
2023/08/03 12:56:15;;;;;;;3.90;2.47;;;;;;;31.85;36.80;99572.63;1785386;79;21338;-85
2023/08/03 12:59:22;;;;;;;4.28;2.22;;;;;;;31.88;37.80;99574.22;1785523;79;21287;-85
2023/08/03 13:02:31;;;;;;;2.75;2.33;;;;;;;31.76;36.89;99569.23;1780069;79;21891;-85
2023/08/03 13:05:39;;;;;;;3.72;2.20;;;;;;;31.87;37.39;99576.80;1785949;79;21275;-85
2023/08/03 13:08:46;;;;;;;2.98;2.47;;;;;;;31.81;36.79;99572.47;1785706;80;21204;-85
2023/08/03 13:11:46;;;;;;;3.27;2.10;;;;;;;31.74;36.70;99572.96;1784921;79;21310;-85
2023/08/03 13:14:52;;;;;;;2.90;2.10;;;;;;;31.70;36.14;99579.03;1785770;79;21276;-85
2023/08/03 13:17:58;;;;;;;3.30;2.10;;;;;;;31.58;35.47;99581.73;1784529;80;21844;-85
2023/08/03 13:21:06;;;;;;;3.08;2.12;;;;;;;31.42;36.29;99574.91;1785495;79;21868;-85
2023/08/03 13:24:12;;;;;;;6.37;2.30;;;;;;;31.42;36.87;99586.20;1785794;80;21192;-85
2023/08/03 13:27:25;;;;;;;3.05;2.05;;;;;;;31.25;37.59;99584.20;1784677;79;21307;-85
2023/08/03 13:30:30;;;;;;;3.90;2.33;;;;;;;31.20;37.02;99585.19;1785640;79;21196;-85
2023/08/03 13:33:36;;;;;;;3.12;1.98;;;;;;;31.19;36.19;99588.33;1785608;80;21240;-85
2023/08/03 13:36:42;;;;;;;3.02;1.80;;;;;;;31.15;36.19;99588.73;1785036;79;21314;-85
2023/08/03 13:39:48;;;;;;;4.15;2.22;;;;;;;30.99;36.80;99594.04;1785888;80;21648;-85
2023/08/03 13:42:54;;;;;;;3.37;2.00;;;;;;;31.04;36.66;99588.23;1737030;81;21307;-85
2023/08/03 13:46:00;;;;;;;3.15;2.05;;;;;;;30.95;36.89;99597.27;1757768;80;21314;-86
2023/08/03 13:49:05;;;;;;;2.67;1.80;;;;;;;30.90;36.58;99593.19;1742563;81;21319;-84
2023/08/03 13:52:10;;;;;;;4.05;2.33;;;;;;;31.01;37.08;99586.91;1739760;81;21367;-85
2023/08/03 13:55:16;;;;;;;4.12;2.35;;;;;;;31.10;37.11;99584.11;1723238;82;21287;-85
2023/08/03 13:58:15;;;;;;;3.80;2.40;;;;;;;31.03;37.34;99587.98;1747735;82;21327;-85
2023/08/03 14:01:22;;;;;;;2.52;1.92;;;;;;;30.98;37.05;99588.97;1748380;81;21353;-86
2023/08/03 14:04:32;;;;;;;6.12;2.10;;;;;;;30.92;37.68;99595.13;1748858;82;21855;-84
2023/08/03 14:07:37;;;;;;;3.83;2.20;;;;;;;30.93;37.39;99589.72;1747560;81;21211;-86
2023/08/03 14:10:47;;;;;;;4.53;2.30;;;;;;;31.15;37.06;99585.91;1747496;81;21318;-85
2023/08/03 14:13:58;;;;;;;2.60;2.02;;;;;;;30.98;37.10;99587.56;1749034;81;21299;-85
2023/08/03 14:17:02;;;;;;;2.55;1.80;;;;;;;30.95;36.60;99589.63;1749012;80;21349;-85
2023/08/03 14:20:08;;;;;;;3.37;2.05;;;;;;;30.89;36.53;99591.53;1748912;82;21306;-85
2023/08/03 14:23:15;;;;;;;4.65;2.00;;;;;;;30.92;36.49;99596.53;1747383;80;21836;-85
2023/08/03 14:26:21;;;;;;;5.55;2.12;;;;;;;30.66;35.84;99590.19;1748382;81;21342;-86
2023/08/03 14:29:27;;;;;;;3.47;1.98;;;;;;;30.66;36.40;99594.42;1748968;82;21839;-85
2023/08/03 14:32:34;;;;;;;8.28;2.42;;;;;;;30.49;36.15;99585.92;1746233;82;21934;-85
2023/08/03 14:35:40;;;;;;;2.20;2.00;;;;;;;30.64;36.76;99595.34;1747579;80;21259;-85
2023/08/03 14:38:48;;;;;;;4.62;2.60;;;;;;;30.46;37.53;99589.38;1746357;82;21355;-85
2023/08/03 14:41:55;;;;;;;6.65;2.30;;;;;;;30.49;38.13;99598.62;1726090;82;21318;-85
2023/08/03 14:45:03;;;;;;;3.27;2.40;;;;;;;30.44;38.43;99593.95;1730171;82;21164;-84
2023/08/03 14:48:09;;;;;;;3.17;2.17;;;;;;;30.32;38.12;99595.72;1708686;82;21319;-84
2023/08/03 14:51:16;;;;;;;8.95;2.47;;;;;;;30.35;38.21;99593.63;1782760;78;21326;-85
2023/08/03 14:54:23;;;;;;;4.97;2.50;;;;;;;30.25;37.84;99606.03;1781846;80;21271;-84
2023/08/03 14:57:30;;;;;;;2.35;2.15;;;;;;;30.28;37.85;99602.00;1781744;78;21881;-85
2023/08/03 15:00:37;;;;;;;15.20;3.08;;;;;;;30.19;37.86;99596.89;1741606;79;21283;-85
2023/08/03 15:03:43;;;;;;;3.10;2.60;;;;;;;30.13;38.23;99598.20;1782016;80;22279;-84
2023/08/03 15:06:49;;;;;;;3.65;2.30;;;;;;;30.18;38.02;99605.10;1762168;80;21317;-84
2023/08/03 15:09:56;;;;;;;3.50;2.80;;;;;;;30.15;38.69;99597.86;1781833;80;21288;-85
2023/08/03 15:12:56;;;;;;;4.12;2.52;;;;;;;30.09;39.75;99599.96;1763591;80;21327;-84
2023/08/03 15:16:02;;;;;;;5.08;2.60;;;;;;;30.09;39.75;99599.96;1781864;79;21349;-84
2023/08/03 15:19:10;;;;;;;3.62;2.58;;;;;;;30.10;40.09;99605.02;1760971;78;21891;-85
2023/08/03 15:22:20;;;;;;;3.05;2.22;;;;;;;29.95;40.52;99608.50;1781980;79;21306;-84
2023/08/03 15:25:28;;;;;;;4.20;2.45;;;;;;;29.89;38.91;99608.39;1783369;79;21283;-85
2023/08/03 15:28:35;;;;;;;6.15;2.47;;;;;;;29.98;38.88;99608.45;1761283;80;21283;-85
2023/08/03 15:31:44;;;;;;;4.97;2.70;;;;;;;29.94;39.58;99607.42;1783314;79;21303;-84
2023/08/03 15:34:50;;;;;;;4.20;2.80;;;;;;;29.76;40.22;99611.53;1782482;80;21307;-85
2023/08/03 15:37:58;;;;;;;5.45;2.52;;;;;;;29.81;40.66;99611.14;1783160;80;21319;-86
2023/08/03 15:41:06;;;;;;;5.62;2.80;;;;;;;29.72;41.59;99614.72;1782829;79;21309;-85
2023/08/03 15:44:13;;;;;;;11.65;2.95;;;;;;;29.72;41.59;99614.72;1783106;80;21296;-86
2023/08/03 15:47:20;;;;;;;5.10;3.30;;;;;;;29.52;40.52;99619.44;1781836;79;21195;-86
2023/08/03 15:50:28;;;;;;;10.75;3.20;;;;;;;29.53;41.13;99619.69;1782421;79;21199;-86
2023/08/03 15:53:35;;;;;;;6.53;2.80;;;;;;;29.67;40.84;99620.48;1785220;80;21271;-86
2023/08/03 15:56:43;;;;;;;4.28;2.87;;;;;;;29.56;41.05;99626.72;1775134;79;21361;-86
2023/08/03 15:59:49;;;;;;;5.72;2.58;;;;;;;29.26;41.55;99624.83;1784409;80;21568;-85
2023/08/03 16:02:58;;;;;;;6.08;2.50;;;;;;;29.17;41.82;99636.03;1744224;80;21760;-87
2023/08/03 16:05:56;;;;;;;12.88;3.37;;;;;;;29.10;42.26;99630.56;1763191;79;21522;-86
2023/08/03 16:08:50;;;;;;;11.57;3.15;;;;;;;29.15;42.64;99636.91;1785155;78;21286;-86
2023/08/03 16:11:55;;;;;;;12.73;3.58;;;;;;;29.18;43.04;99635.45;1784519;79;21299;-86
2023/08/03 16:15:02;;;;;;;9.63;3.17;;;;;;;29.10;43.36;99641.83;1785277;79;21275;-85
2023/08/03 16:18:09;;;;;;;8.93;3.20;;;;;;;28.98;43.84;99643.75;1764006;80;21283;-84
2023/08/03 16:21:16;;;;;;;12.03;2.77;;;;;;;29.13;43.71;99653.30;1783925;79;21306;-85
2023/08/03 16:24:23;;;;;;;10.88;3.40;;;;;;;29.04;43.69;99648.14;1785189;79;21760;-85
2023/08/03 16:27:30;;;;;;;6.33;3.02;;;;;;;28.95;44.13;99659.88;1784059;79;21310;-85
2023/08/03 16:30:35;;;;;;;6.10;3.10;;;;;;;28.95;44.46;99660.71;1783795;78;21294;-85
2023/08/03 16:33:40;;;;;;;9.85;4.35;;;;;;;28.87;44.85;99659.17;1775864;80;21327;-85
2023/08/03 16:36:47;;;;;;;9.88;4.70;;;;;;;28.48;45.61;99661.35;1782161;79;21321;-85
2023/08/03 16:39:54;;;;;;;9.08;5.40;;;;;;;28.39;46.15;99666.02;1782592;79;21341;-85
2023/08/03 16:42:59;;;;;;;15.30;5.80;;;;;;;28.35;46.69;99664.14;1785423;80;21279;-85
2023/08/03 16:46:05;;;;;;;13.30;5.97;;;;;;;28.34;47.40;99661.05;1785056;79;21839;-85
2023/08/03 16:49:12;;;;;;;11.80;6.30;;;;;;;28.25;47.84;99673.57;1764014;80;21275;-86
2023/08/03 16:52:17;;;;;;;11.75;6.08;;;;;;;28.19;48.31;99667.21;1782599;79;21871;-83
2023/08/03 16:55:24;;;;;;;12.20;6.05;;;;;;;28.10;48.92;99666.25;1785258;79;21287;-84
2023/08/03 16:58:31;;;;;;;8.60;5.10;;;;;;;28.02;49.91;99669.76;1785569;78;21291;-84
2023/08/03 17:01:30;;;;;;;12.70;5.42;;;;;;;28.19;49.44;99667.21;1784645;79;21346;-84
2023/08/03 17:04:24;;;;;;;14.90;5.85;;;;;;;27.90;49.90;99680.63;1785203;79;21787;-85
2023/08/03 17:07:09;;;;;;;8.55;5.22;;;;;;;27.93;49.50;99680.86;1784142;79;21381;-85
2023/08/03 17:13:09;;;;;;;12.43;5.50;;;;;;;27.51;52.05;99684.59;1784357;80;21306;-85
2023/08/03 17:16:16;;;;;;;14.87;6.17;;;;;;;27.57;52.87;99683.39;1784009;79;22076;-84
2023/08/03 17:19:22;;;;;;;16.67;5.65;;;;;;;27.46;52.78;99695.90;1783864;80;21278;-84
2023/08/03 17:22:29;;;;;;;20.95;5.30;;;;;;;27.01;53.83;99693.40;1784131;79;21883;-85
2023/08/03 17:25:36;;;;;;;19.57;9.13;;;;;;;26.91;54.14;99695.47;1785349;79;21284;-86
2023/08/03 17:28:36;;;;;;;16.65;7.62;;;;;;;26.83;54.79;99694.18;1785115;80;21295;-85
2023/08/03 17:31:46;;;;;;;21.62;12.30;;;;;;;26.71;55.83;99696.55;1784262;79;21302;-85
2023/08/03 17:34:52;;;;;;;;;;;;;;;26.79;55.72;99703.50;1788028;79;21298;-85
2023/08/03 17:37:58;;;;;;;17.62;8.98;;;;;;;26.70;55.99;99704.71;1785378;80;20250;-85
2023/08/03 17:41:04;;;;;;;13.93;7.65;;;;;;;26.37;57.82;99707.83;1784604;79;21322;-86
2023/08/03 17:44:11;;;;;;;14.00;7.42;;;;;;;26.47;58.16;99705.78;1785269;80;21795;-86
2023/08/03 17:47:18;;;;;;;20.80;6.87;;;;;;;26.45;58.37;99704.42;1784203;79;21310;-86
2023/08/03 17:50:23;;;;;;;21.40;6.87;;;;;;;26.14;59.75;99706.64;1785265;79;21188;-86
2023/08/03 17:53:29;;;;;;;11.40;6.33;;;;;;;25.99;60.35;99711.81;1783043;80;21330;-85
2023/08/03 17:56:35;;;;;;;10.40;5.30;;;;;;;25.93;60.08;99713.83;1783869;79;21310;-86
2023/08/03 17:59:43;;;;;;;13.00;5.58;;;;;;;25.65;60.91;99718.20;1783698;80;21282;-85
2023/08/03 18:02:52;;;;;;;12.43;5.47;;;;;;;25.49;61.37;99718.01;1785393;80;21864;-84
2023/08/03 18:05:58;;;;;;;7.25;5.25;;;;;;;25.61;61.57;99712.91;1785097;79;21306;-84
2023/08/03 18:09:05;;;;;;;8.13;4.85;;;;;;;25.68;61.64;99721.80;1785312;80;21272;-86
2023/08/03 18:12:13;;;;;;;58.08;7.60;;;;;;;25.46;62.10;99718.61;1784214;79;21305;-86
2023/08/03 18:15:20;;;;;;;25.70;5.75;;;;;;;25.48;62.09;99724.74;1785375;79;21310;-85
2023/08/03 18:18:27;;;;;;;10.28;4.67;;;;;;;25.17;62.88;99720.72;1785383;80;21314;-86
2023/08/03 18:21:34;;;;;;;24.87;5.20;;;;;;;25.39;61.97;99720.88;1775161;80;21315;-84
2023/08/03 18:24:41;;;;;;;21.85;5.37;;;;;;;25.32;61.86;99727.36;1785368;79;21297;-85
2023/08/03 18:27:47;;;;;;;7.12;4.58;;;;;;;25.08;62.60;99724.38;1783890;80;21326;-85
2023/08/03 18:30:55;;;;;;;12.58;4.80;;;;;;;24.99;62.84;99732.52;1785259;79;21981;-86
2023/08/03 18:34:01;;;;;;;11.78;4.83;;;;;;;24.84;63.42;99732.01;1774291;79;21314;-83
2023/08/03 18:37:07;;;;;;;10.98;5.50;;;;;;;24.85;63.68;99734.24;1773562;79;21212;-84
2023/08/03 18:40:14;;;;;;;7.37;4.35;;;;;;;24.77;64.20;99732.02;1815238;79;21812;-84
2023/08/03 18:43:21;;;;;;;10.85;4.65;;;;;;;24.60;64.55;99742.11;1815071;79;21267;-84
2023/08/03 18:46:28;;;;;;;7.80;4.45;;;;;;;24.56;64.89;99747.45;1814499;79;21307;-85
2023/08/03 18:49:35;;;;;;;5.55;4.15;;;;;;;24.56;65.15;99741.00;1814867;78;21291;-85
2023/08/03 18:52:42;;;;;;;12.03;5.15;;;;;;;24.54;64.98;99746.88;1813825;79;21311;-86